Cushing, Utah
Current Conditions -  °F | °C
As of 7:53 AM on Saturday 22 Nov 2014 (Local Time) from KSLC Reporting Station
Broken Clouds Broken Clouds  
Wind Chill: 40°   Ceiling: 8000
Heat Index: 46°   Visibility: 10mi
Dew Point: 24°   Wind: 13mph
Humidity: 42%   Direction: 170°S
Pressure: 29.84"   Gusts: NA
Location:  40.615°N, 111.891°W
Report Text: KSLC 221453Z 17011KT 10SM BKN080 BKN200 08/M04 A2984 RMK AO2 SLP099 T00781044 56026
Loading
Personal Weather Stations






























Interactive Weather Map New forecast layout! Learn more

10-Day Weather Forecast

Advertisements
Track Severe Weather on mobile